sensor_id;sensor_type;location;lat;lon;timestamp;P1;durP1;ratioP1;P2;durP2;ratioP2
23588;SDS011;11972;48.078;11.876;2024-02-26T00:00:50;8.55;;;7.10;;
23588;SDS011;11972;48.078;11.876;2024-02-26T00:04:50;7.70;;;6.75;;
23588;SDS011;11972;48.078;11.876;2024-02-26T00:08:51;7.53;;;6.60;;
23588;SDS011;11972;48.078;11.876;2024-02-26T00:12:51;7.55;;;5.90;;
23588;SDS011;11972;48.078;11.876;2024-02-26T00:16:51;6.50;;;5.70;;
23588;SDS011;11972;48.078;11.876;2024-02-26T00:20:52;7.68;;;5.60;;
23588;SDS011;11972;48.078;11.876;2024-02-26T00:24:52;6.13;;;5.38;;
23588;SDS011;11972;48.078;11.876;2024-02-26T00:28:52;5.68;;;5.18;;
23588;SDS011;11972;48.078;11.876;2024-02-26T00:32:53;5.00;;;4.45;;
23588;SDS011;11972;48.078;11.876;2024-02-26T00:36:53;4.75;;;4.28;;
23588;SDS011;11972;48.078;11.876;2024-02-26T00:40:53;4.72;;;4.20;;
23588;SDS011;11972;48.078;11.876;2024-02-26T00:44:54;4.40;;;4.00;;
23588;SDS011;11972;48.078;11.876;2024-02-26T00:48:55;5.60;;;4.93;;
23588;SDS011;11972;48.078;11.876;2024-02-26T00:52:56;4.43;;;3.75;;
23588;SDS011;11972;48.078;11.876;2024-02-26T00:56:56;4.40;;;4.00;;
23588;SDS011;11972;48.078;11.876;2024-02-26T01:00:56;4.45;;;4.05;;
23588;SDS011;11972;48.078;11.876;2024-02-26T01:04:57;4.28;;;3.88;;
23588;SDS011;11972;48.078;11.876;2024-02-26T01:08:57;4.72;;;3.67;;
23588;SDS011;11972;48.078;11.876;2024-02-26T01:12:57;4.43;;;3.38;;
23588;SDS011;11972;48.078;11.876;2024-02-26T01:16:58;3.63;;;3.20;;
23588;SDS011;11972;48.078;11.876;2024-02-26T01:20:58;3.72;;;3.30;;
23588;SDS011;11972;48.078;11.876;2024-02-26T01:24:59;4.63;;;3.40;;
23588;SDS011;11972;48.078;11.876;2024-02-26T01:28:59;3.58;;;3.28;;
23588;SDS011;11972;48.078;11.876;2024-02-26T01:32:59;3.40;;;2.80;;
23588;SDS011;11972;48.078;11.876;2024-02-26T01:37:00;3.25;;;2.95;;
23588;SDS011;11972;48.078;11.876;2024-02-26T01:41:00;4.20;;;3.22;;
23588;SDS011;11972;48.078;11.876;2024-02-26T01:45:01;3.10;;;2.80;;
23588;SDS011;11972;48.078;11.876;2024-02-26T01:49:02;2.90;;;2.70;;
23588;SDS011;11972;48.078;11.876;2024-02-26T01:53:03;3.30;;;3.00;;
23588;SDS011;11972;48.078;11.876;2024-02-26T01:57:05;3.22;;;2.78;;
23588;SDS011;11972;48.078;11.876;2024-02-26T02:01:06;3.33;;;2.10;;
23588;SDS011;11972;48.078;11.876;2024-02-26T02:05:08;2.70;;;2.50;;
23588;SDS011;11972;48.078;11.876;2024-02-26T02:09:10;2.60;;;2.40;;
23588;SDS011;11972;48.078;11.876;2024-02-26T02:13:11;3.05;;;2.22;;
23588;SDS011;11972;48.078;11.876;2024-02-26T02:17:11;2.35;;;2.15;;
23588;SDS011;11972;48.078;11.876;2024-02-26T02:21:11;3.67;;;2.40;;
23588;SDS011;11972;48.078;11.876;2024-02-26T02:25:12;2.10;;;1.90;;
23588;SDS011;11972;48.078;11.876;2024-02-26T02:29:13;1.98;;;1.80;;
23588;SDS011;11972;48.078;11.876;2024-02-26T02:33:14;2.72;;;2.10;;
23588;SDS011;11972;48.078;11.876;2024-02-26T02:37:16;2.60;;;2.35;;
23588;SDS011;11972;48.078;11.876;2024-02-26T02:41:16;2.55;;;2.30;;
23588;SDS011;11972;48.078;11.876;2024-02-26T02:45:17;2.47;;;2.28;;
23588;SDS011;11972;48.078;11.876;2024-02-26T02:49:17;2.80;;;2.60;;
23588;SDS011;11972;48.078;11.876;2024-02-26T02:53:18;2.30;;;2.10;;
23588;SDS011;11972;48.078;11.876;2024-02-26T02:57:18;2.85;;;2.22;;
23588;SDS011;11972;48.078;11.876;2024-02-26T03:01:19;2.65;;;2.40;;
23588;SDS011;11972;48.078;11.876;2024-02-26T03:05:19;3.17;;;2.67;;
23588;SDS011;11972;48.078;11.876;2024-02-26T03:09:19;2.67;;;2.47;;
23588;SDS011;11972;48.078;11.876;2024-02-26T03:13:20;3.03;;;2.50;;
23588;SDS011;11972;48.078;11.876;2024-02-26T03:17:21;2.80;;;2.58;;
23588;SDS011;11972;48.078;11.876;2024-02-26T03:21:21;3.30;;;2.60;;
23588;SDS011;11972;48.078;11.876;2024-02-26T03:25:21;2.55;;;2.22;;
23588;SDS011;11972;48.078;11.876;2024-02-26T03:29:22;2.67;;;2.47;;
23588;SDS011;11972;48.078;11.876;2024-02-26T03:33:22;3.53;;;2.35;;
23588;SDS011;11972;48.078;11.876;2024-02-26T03:37:22;3.38;;;2.63;;
23588;SDS011;11972;48.078;11.876;2024-02-26T03:41:23;3.67;;;2.20;;
23588;SDS011;11972;48.078;11.876;2024-02-26T03:45:23;2.50;;;2.05;;
23588;SDS011;11972;48.078;11.876;2024-02-26T03:49:23;2.92;;;1.90;;
23588;SDS011;11972;48.078;11.876;2024-02-26T03:53:24;2.13;;;1.92;;
23588;SDS011;11972;48.078;11.876;2024-02-26T03:57:24;2.65;;;2.00;;
23588;SDS011;11972;48.078;11.876;2024-02-26T04:01:24;2.90;;;2.00;;
23588;SDS011;11972;48.078;11.876;2024-02-26T04:05:24;1.98;;;1.77;;
23588;SDS011;11972;48.078;11.876;2024-02-26T04:09:25;2.28;;;1.85;;
23588;SDS011;11972;48.078;11.876;2024-02-26T04:13:25;2.10;;;1.70;;
23588;SDS011;11972;48.078;11.876;2024-02-26T04:17:26;2.50;;;2.08;;
23588;SDS011;11972;48.078;11.876;2024-02-26T04:21:26;2.17;;;1.70;;
23588;SDS011;11972;48.078;11.876;2024-02-26T04:25:26;3.05;;;2.70;;
23588;SDS011;11972;48.078;11.876;2024-02-26T04:29:28;2.15;;;1.88;;
23588;SDS011;11972;48.078;11.876;2024-02-26T04:33:28;1.98;;;1.77;;
23588;SDS011;11972;48.078;11.876;2024-02-26T04:37:29;2.20;;;2.00;;
23588;SDS011;11972;48.078;11.876;2024-02-26T04:41:30;2.10;;;1.90;;
23588;SDS011;11972;48.078;11.876;2024-02-26T04:45:31;2.40;;;2.20;;
23588;SDS011;11972;48.078;11.876;2024-02-26T04:49:31;3.20;;;2.25;;
23588;SDS011;11972;48.078;11.876;2024-02-26T04:53:32;3.63;;;3.33;;
23588;SDS011;11972;48.078;11.876;2024-02-26T04:57:32;3.53;;;2.90;;
23588;SDS011;11972;48.078;11.876;2024-02-26T05:01:32;2.15;;;1.90;;
23588;SDS011;11972;48.078;11.876;2024-02-26T05:05:32;2.15;;;1.83;;
23588;SDS011;11972;48.078;11.876;2024-02-26T05:09:33;2.60;;;2.40;;
23588;SDS011;11972;48.078;11.876;2024-02-26T05:13:33;3.08;;;2.22;;
23588;SDS011;11972;48.078;11.876;2024-02-26T05:17:33;2.80;;;2.55;;
23588;SDS011;11972;48.078;11.876;2024-02-26T05:21:34;2.28;;;2.08;;
23588;SDS011;11972;48.078;11.876;2024-02-26T05:25:34;2.38;;;2.17;;
23588;SDS011;11972;48.078;11.876;2024-02-26T05:29:35;2.42;;;2.22;;
23588;SDS011;11972;48.078;11.876;2024-02-26T05:33:35;3.20;;;2.40;;
23588;SDS011;11972;48.078;11.876;2024-02-26T05:37:35;3.72;;;2.30;;
23588;SDS011;11972;48.078;11.876;2024-02-26T05:41:36;2.88;;;2.10;;
23588;SDS011;11972;48.078;11.876;2024-02-26T05:45:36;2.53;;;2.20;;
23588;SDS011;11972;48.078;11.876;2024-02-26T05:49:36;2.40;;;2.20;;
23588;SDS011;11972;48.078;11.876;2024-02-26T05:53:37;2.58;;;2.38;;
23588;SDS011;11972;48.078;11.876;2024-02-26T05:57:37;3.25;;;2.13;;
23588;SDS011;11972;48.078;11.876;2024-02-26T06:01:37;2.40;;;1.92;;
23588;SDS011;11972;48.078;11.876;2024-02-26T06:05:37;3.22;;;2.08;;
23588;SDS011;11972;48.078;11.876;2024-02-26T06:09:38;2.65;;;2.17;;
23588;SDS011;11972;48.078;11.876;2024-02-26T06:13:39;2.88;;;2.60;;
23588;SDS011;11972;48.078;11.876;2024-02-26T06:17:39;2.53;;;2.33;;
23588;SDS011;11972;48.078;11.876;2024-02-26T06:21:40;2.85;;;2.40;;
23588;SDS011;11972;48.078;11.876;2024-02-26T06:25:40;3.40;;;2.50;;
23588;SDS011;11972;48.078;11.876;2024-02-26T06:29:42;5.35;;;2.38;;
23588;SDS011;11972;48.078;11.876;2024-02-26T06:33:46;2.78;;;2.08;;
23588;SDS011;11972;48.078;11.876;2024-02-26T06:37:47;2.83;;;2.17;;
23588;SDS011;11972;48.078;11.876;2024-02-26T06:41:50;2.10;;;1.83;;
23588;SDS011;11972;48.078;11.876;2024-02-26T06:45:54;2.00;;;1.80;;
23588;SDS011;11972;48.078;11.876;2024-02-26T06:49:54;2.08;;;1.80;;
23588;SDS011;11972;48.078;11.876;2024-02-26T06:53:58;2.65;;;1.80;;
23588;SDS011;11972;48.078;11.876;2024-02-26T06:57:58;2.15;;;1.45;;
23588;SDS011;11972;48.078;11.876;2024-02-26T07:01:58;1.40;;;1.23;;
23588;SDS011;11972;48.078;11.876;2024-02-26T07:05:59;1.27;;;1.17;;
23588;SDS011;11972;48.078;11.876;2024-02-26T07:10:01;1.58;;;1.48;;
23588;SDS011;11972;48.078;11.876;2024-02-26T07:14:03;2.35;;;1.20;;
23588;SDS011;11972;48.078;11.876;2024-02-26T07:18:04;2.05;;;1.40;;
23588;SDS011;11972;48.078;11.876;2024-02-26T07:22:04;1.83;;;1.63;;
23588;SDS011;11972;48.078;11.876;2024-02-26T07:26:05;2.08;;;1.58;;
23588;SDS011;11972;48.078;11.876;2024-02-26T07:30:06;2.78;;;2.00;;
23588;SDS011;11972;48.078;11.876;2024-02-26T07:34:11;2.28;;;1.67;;
23588;SDS011;11972;48.078;11.876;2024-02-26T07:38:11;3.15;;;1.80;;
23588;SDS011;11972;48.078;11.876;2024-02-26T07:42:13;1.60;;;1.50;;
23588;SDS011;11972;48.078;11.876;2024-02-26T07:46:13;2.33;;;1.80;;
23588;SDS011;11972;48.078;11.876;2024-02-26T07:50:14;1.60;;;1.50;;
23588;SDS011;11972;48.078;11.876;2024-02-26T07:54:14;1.67;;;1.40;;
23588;SDS011;11972;48.078;11.876;2024-02-26T07:58:16;1.33;;;1.17;;
23588;SDS011;11972;48.078;11.876;2024-02-26T08:02:16;1.63;;;1.13;;
23588;SDS011;11972;48.078;11.876;2024-02-26T08:06:17;1.45;;;1.10;;
23588;SDS011;11972;48.078;11.876;2024-02-26T08:10:17;1.23;;;1.13;;
23588;SDS011;11972;48.078;11.876;2024-02-26T08:14:17;1.45;;;1.35;;
23588;SDS011;11972;48.078;11.876;2024-02-26T08:18:18;1.63;;;1.30;;
23588;SDS011;11972;48.078;11.876;2024-02-26T08:22:19;1.30;;;0.93;;
23588;SDS011;11972;48.078;11.876;2024-02-26T08:26:19;1.70;;;1.33;;
23588;SDS011;11972;48.078;11.876;2024-02-26T08:30:20;1.27;;;0.93;;
23588;SDS011;11972;48.078;11.876;2024-02-26T08:34:21;1.10;;;1.00;;
23588;SDS011;11972;48.078;11.876;2024-02-26T08:38:21;0.93;;;0.90;;
23588;SDS011;11972;48.078;11.876;2024-02-26T08:42:21;2.83;;;0.90;;
23588;SDS011;11972;48.078;11.876;2024-02-26T08:46:24;3.83;;;1.05;;
23588;SDS011;11972;48.078;11.876;2024-02-26T08:50:24;0.90;;;0.77;;
23588;SDS011;11972;48.078;11.876;2024-02-26T08:54:25;1.20;;;1.00;;
23588;SDS011;11972;48.078;11.876;2024-02-26T08:58:26;0.93;;;0.90;;
23588;SDS011;11972;48.078;11.876;2024-02-26T09:02:30;1.80;;;0.85;;
23588;SDS011;11972;48.078;11.876;2024-02-26T09:06:31;1.55;;;1.08;;
23588;SDS011;11972;48.078;11.876;2024-02-26T09:10:31;1.20;;;1.00;;
23588;SDS011;11972;48.078;11.876;2024-02-26T09:14:32;1.67;;;1.40;;
23588;SDS011;11972;48.078;11.876;2024-02-26T09:18:33;1.33;;;1.20;;
23588;SDS011;11972;48.078;11.876;2024-02-26T09:22:33;2.40;;;1.20;;
23588;SDS011;11972;48.078;11.876;2024-02-26T09:26:34;1.20;;;1.10;;
23588;SDS011;11972;48.078;11.876;2024-02-26T09:30:35;1.10;;;1.00;;
23588;SDS011;11972;48.078;11.876;2024-02-26T09:34:35;1.07;;;0.97;;
23588;SDS011;11972;48.078;11.876;2024-02-26T09:38:36;3.38;;;0.95;;
23588;SDS011;11972;48.078;11.876;2024-02-26T09:42:40;1.20;;;1.00;;
23588;SDS011;11972;48.078;11.876;2024-02-26T09:46:44;1.10;;;0.98;;
23588;SDS011;11972;48.078;11.876;2024-02-26T09:50:44;1.00;;;0.80;;
23588;SDS011;11972;48.078;11.876;2024-02-26T09:54:46;1.02;;;0.70;;
23588;SDS011;11972;48.078;11.876;2024-02-26T09:58:47;0.60;;;0.60;;
23588;SDS011;11972;48.078;11.876;2024-02-26T10:02:54;1.52;;;0.85;;
23588;SDS011;11972;48.078;11.876;2024-02-26T10:06:56;2.45;;;0.73;;
23588;SDS011;11972;48.078;11.876;2024-02-26T10:10:59;0.80;;;0.70;;
23588;SDS011;11972;48.078;11.876;2024-02-26T10:15:00;2.63;;;0.80;;
23588;SDS011;11972;48.078;11.876;2024-02-26T10:19:01;0.90;;;0.90;;
23588;SDS011;11972;48.078;11.876;2024-02-26T10:23:04;0.93;;;0.80;;
23588;SDS011;11972;48.078;11.876;2024-02-26T10:27:05;1.20;;;0.82;;
23588;SDS011;11972;48.078;11.876;2024-02-26T10:31:06;3.15;;;0.98;;
23588;SDS011;11972;48.078;11.876;2024-02-26T10:35:10;3.08;;;0.90;;
23588;SDS011;11972;48.078;11.876;2024-02-26T10:39:13;1.58;;;0.95;;
23588;SDS011;11972;48.078;11.876;2024-02-26T10:43:14;1.95;;;1.00;;
23588;SDS011;11972;48.078;11.876;2024-02-26T10:47:16;1.58;;;1.15;;
23588;SDS011;11972;48.078;11.876;2024-02-26T10:51:20;1.00;;;0.80;;
23588;SDS011;11972;48.078;11.876;2024-02-26T10:55:27;1.30;;;1.00;;
23588;SDS011;11972;48.078;11.876;2024-02-26T10:59:28;1.15;;;0.95;;
23588;SDS011;11972;48.078;11.876;2024-02-26T11:03:33;1.77;;;1.40;;
23588;SDS011;11972;48.078;11.876;2024-02-26T11:07:37;1.48;;;0.90;;
23588;SDS011;11972;48.078;11.876;2024-02-26T11:11:39;1.20;;;1.00;;
23588;SDS011;11972;48.078;11.876;2024-02-26T11:15:41;0.77;;;0.73;;
23588;SDS011;11972;48.078;11.876;2024-02-26T11:19:41;1.08;;;0.80;;
23588;SDS011;11972;48.078;11.876;2024-02-26T11:23:47;2.00;;;1.65;;
23588;SDS011;11972;48.078;11.876;2024-02-26T11:27:56;1.30;;;1.00;;
23588;SDS011;11972;48.078;11.876;2024-02-26T11:32:05;0.90;;;0.77;;
23588;SDS011;11972;48.078;11.876;2024-02-26T11:36:09;0.50;;;0.50;;
23588;SDS011;11972;48.078;11.876;2024-02-26T11:40:13;1.38;;;0.70;;
23588;SDS011;11972;48.078;11.876;2024-02-26T11:44:17;0.60;;;0.50;;
23588;SDS011;11972;48.078;11.876;2024-02-26T11:48:32;0.70;;;0.50;;
23588;SDS011;11972;48.078;11.876;2024-02-26T11:52:33;0.77;;;0.60;;
23588;SDS011;11972;48.078;11.876;2024-02-26T11:56:40;0.60;;;0.47;;
23588;SDS011;11972;48.078;11.876;2024-02-26T12:00:40;3.22;;;0.50;;
23588;SDS011;11972;48.078;11.876;2024-02-26T12:04:41;0.77;;;0.50;;
23588;SDS011;11972;48.078;11.876;2024-02-26T12:08:41;1.85;;;1.00;;
23588;SDS011;11972;48.078;11.876;2024-02-26T12:12:44;0.63;;;0.50;;
23588;SDS011;11972;48.078;11.876;2024-02-26T12:16:45;0.73;;;0.57;;
23588;SDS011;11972;48.078;11.876;2024-02-26T12:20:45;1.20;;;0.30;;
23588;SDS011;11972;48.078;11.876;2024-02-26T12:24:47;1.42;;;0.50;;
23588;SDS011;11972;48.078;11.876;2024-02-26T12:28:47;0.60;;;0.40;;
23588;SDS011;11972;48.078;11.876;2024-02-26T12:32:48;0.38;;;0.38;;
23588;SDS011;11972;48.078;11.876;2024-02-26T12:36:50;0.32;;;0.32;;
23588;SDS011;11972;48.078;11.876;2024-02-26T12:40:51;0.70;;;0.50;;
23588;SDS011;11972;48.078;11.876;2024-02-26T12:44:52;1.45;;;0.80;;
23588;SDS011;11972;48.078;11.876;2024-02-26T12:48:54;1.50;;;0.82;;
23588;SDS011;11972;48.078;11.876;2024-02-26T12:52:57;0.43;;;0.40;;
23588;SDS011;11972;48.078;11.876;2024-02-26T12:56:59;1.10;;;0.60;;
23588;SDS011;11972;48.078;11.876;2024-02-26T13:01:01;0.20;;;0.20;;
23588;SDS011;11972;48.078;11.876;2024-02-26T13:05:02;0.40;;;0.40;;
23588;SDS011;11972;48.078;11.876;2024-02-26T13:09:03;1.15;;;1.05;;
23588;SDS011;11972;48.078;11.876;2024-02-26T13:13:04;9.15;;;7.85;;
23588;SDS011;11972;48.078;11.876;2024-02-26T13:17:05;2.42;;;0.20;;
23588;SDS011;11972;48.078;11.876;2024-02-26T13:21:12;0.22;;;0.20;;
23588;SDS011;11972;48.078;11.876;2024-02-26T13:25:20;0.40;;;0.30;;
23588;SDS011;11972;48.078;11.876;2024-02-26T13:29:20;0.73;;;0.57;;
23588;SDS011;11972;48.078;11.876;2024-02-26T13:33:21;2.00;;;1.58;;
23588;SDS011;11972;48.078;11.876;2024-02-26T13:37:22;0.40;;;0.30;;
23588;SDS011;11972;48.078;11.876;2024-02-26T13:41:22;0.40;;;0.40;;
23588;SDS011;11972;48.078;11.876;2024-02-26T13:45:23;0.82;;;0.30;;
23588;SDS011;11972;48.078;11.876;2024-02-26T13:49:23;1.13;;;0.70;;
23588;SDS011;11972;48.078;11.876;2024-02-26T13:53:24;1.58;;;0.55;;
23588;SDS011;11972;48.078;11.876;2024-02-26T13:57:24;0.85;;;0.40;;
23588;SDS011;11972;48.078;11.876;2024-02-26T14:01:25;0.30;;;0.30;;
23588;SDS011;11972;48.078;11.876;2024-02-26T14:05:25;0.73;;;0.50;;
23588;SDS011;11972;48.078;11.876;2024-02-26T14:09:27;0.70;;;0.50;;
23588;SDS011;11972;48.078;11.876;2024-02-26T14:13:27;0.40;;;0.40;;
23588;SDS011;11972;48.078;11.876;2024-02-26T14:17:28;0.40;;;0.40;;
23588;SDS011;11972;48.078;11.876;2024-02-26T14:21:29;1.90;;;0.40;;
23588;SDS011;11972;48.078;11.876;2024-02-26T14:25:32;0.70;;;0.60;;
23588;SDS011;11972;48.078;11.876;2024-02-26T14:29:32;0.20;;;0.20;;
23588;SDS011;11972;48.078;11.876;2024-02-26T14:33:32;0.47;;;0.33;;
23588;SDS011;11972;48.078;11.876;2024-02-26T14:37:33;1.00;;;0.70;;
23588;SDS011;11972;48.078;11.876;2024-02-26T14:41:33;1.33;;;0.68;;
23588;SDS011;11972;48.078;11.876;2024-02-26T14:45:33;0.70;;;0.70;;
23588;SDS011;11972;48.078;11.876;2024-02-26T14:49:34;1.23;;;0.80;;
23588;SDS011;11972;48.078;11.876;2024-02-26T14:53:35;1.83;;;0.60;;
23588;SDS011;11972;48.078;11.876;2024-02-26T14:57:35;0.40;;;0.40;;
23588;SDS011;11972;48.078;11.876;2024-02-26T15:01:35;0.73;;;0.57;;
23588;SDS011;11972;48.078;11.876;2024-02-26T15:05:36;1.20;;;0.50;;
23588;SDS011;11972;48.078;11.876;2024-02-26T15:09:37;0.45;;;0.35;;
23588;SDS011;11972;48.078;11.876;2024-02-26T15:13:38;0.43;;;0.30;;
23588;SDS011;11972;48.078;11.876;2024-02-26T15:17:39;0.60;;;0.50;;
23588;SDS011;11972;48.078;11.876;2024-02-26T15:21:43;2.05;;;0.57;;
23588;SDS011;11972;48.078;11.876;2024-02-26T15:25:46;1.02;;;0.80;;
23588;SDS011;11972;48.078;11.876;2024-02-26T15:29:47;1.63;;;1.50;;
23588;SDS011;11972;48.078;11.876;2024-02-26T15:33:47;2.08;;;1.80;;
23588;SDS011;11972;48.078;11.876;2024-02-26T15:37:47;1.80;;;1.60;;
23588;SDS011;11972;48.078;11.876;2024-02-26T15:41:48;4.20;;;3.10;;
23588;SDS011;11972;48.078;11.876;2024-02-26T15:45:48;5.43;;;3.70;;
23588;SDS011;11972;48.078;11.876;2024-02-26T15:49:48;8.07;;;5.43;;
23588;SDS011;11972;48.078;11.876;2024-02-26T15:53:49;7.70;;;5.03;;
23588;SDS011;11972;48.078;11.876;2024-02-26T15:57:49;4.72;;;2.47;;
23588;SDS011;11972;48.078;11.876;2024-02-26T16:01:50;4.13;;;3.35;;
23588;SDS011;11972;48.078;11.876;2024-02-26T16:05:50;3.57;;;2.70;;
23588;SDS011;11972;48.078;11.876;2024-02-26T16:09:53;4.07;;;3.67;;
23588;SDS011;11972;48.078;11.876;2024-02-26T16:13:58;4.90;;;4.50;;
23588;SDS011;11972;48.078;11.876;2024-02-26T16:22:14;0.77;;;0.60;;
23588;SDS011;11972;48.078;11.876;2024-02-26T16:26:14;1.07;;;0.80;;
23588;SDS011;11972;48.078;11.876;2024-02-26T16:30:15;2.13;;;0.67;;
23588;SDS011;11972;48.078;11.876;2024-02-26T16:34:15;0.82;;;0.50;;
23588;SDS011;11972;48.078;11.876;2024-02-26T16:38:16;1.90;;;0.70;;
23588;SDS011;11972;48.078;11.876;2024-02-26T16:42:16;0.90;;;0.70;;
23588;SDS011;11972;48.078;11.876;2024-02-26T16:46:17;0.50;;;0.50;;
23588;SDS011;11972;48.078;11.876;2024-02-26T16:50:18;3.40;;;2.83;;
23588;SDS011;11972;48.078;11.876;2024-02-26T16:54:19;0.80;;;0.80;;
23588;SDS011;11972;48.078;11.876;2024-02-26T16:58:19;1.33;;;1.00;;
23588;SDS011;11972;48.078;11.876;2024-02-26T17:02:23;1.25;;;0.93;;
23588;SDS011;11972;48.078;11.876;2024-02-26T17:06:23;1.30;;;0.80;;
23588;SDS011;11972;48.078;11.876;2024-02-26T17:10:24;1.42;;;1.13;;
23588;SDS011;11972;48.078;11.876;2024-02-26T17:14:24;1.88;;;0.65;;
23588;SDS011;11972;48.078;11.876;2024-02-26T17:18:25;1.40;;;0.80;;
23588;SDS011;11972;48.078;11.876;2024-02-26T17:22:25;2.15;;;1.00;;
23588;SDS011;11972;48.078;11.876;2024-02-26T17:26:26;1.50;;;0.98;;
23588;SDS011;11972;48.078;11.876;2024-02-26T17:30:26;1.20;;;0.90;;
23588;SDS011;11972;48.078;11.876;2024-02-26T17:34:26;1.20;;;1.08;;
23588;SDS011;11972;48.078;11.876;2024-02-26T17:38:27;1.42;;;1.23;;
23588;SDS011;11972;48.078;11.876;2024-02-26T17:42:29;1.10;;;0.90;;
23588;SDS011;11972;48.078;11.876;2024-02-26T17:46:29;1.33;;;0.82;;
23588;SDS011;11972;48.078;11.876;2024-02-26T17:50:29;1.92;;;0.90;;
23588;SDS011;11972;48.078;11.876;2024-02-26T17:54:30;1.70;;;0.90;;
23588;SDS011;11972;48.078;11.876;2024-02-26T17:58:30;1.45;;;1.00;;
23588;SDS011;11972;48.078;11.876;2024-02-26T18:02:30;1.30;;;0.80;;
23588;SDS011;11972;48.078;11.876;2024-02-26T18:06:31;2.13;;;1.05;;
23588;SDS011;11972;48.078;11.876;2024-02-26T18:10:31;5.18;;;4.68;;
23588;SDS011;11972;48.078;11.876;2024-02-26T18:14:31;1.53;;;1.23;;
23588;SDS011;11972;48.078;11.876;2024-02-26T18:18:32;1.80;;;1.10;;
23588;SDS011;11972;48.078;11.876;2024-02-26T18:22:33;3.10;;;1.95;;
23588;SDS011;11972;48.078;11.876;2024-02-26T18:26:33;7.83;;;5.37;;
23588;SDS011;11972;48.078;11.876;2024-02-26T18:30:34;10.05;;;7.20;;
23588;SDS011;11972;48.078;11.876;2024-02-26T18:34:34;2.60;;;2.30;;
23588;SDS011;11972;48.078;11.876;2024-02-26T18:38:36;4.88;;;3.80;;
23588;SDS011;11972;48.078;11.876;2024-02-26T18:42:36;2.75;;;1.58;;
23588;SDS011;11972;48.078;11.876;2024-02-26T18:46:43;2.05;;;1.17;;
23588;SDS011;11972;48.078;11.876;2024-02-26T18:50:44;1.65;;;1.20;;
23588;SDS011;11972;48.078;11.876;2024-02-26T18:54:46;3.55;;;3.25;;
23588;SDS011;11972;48.078;11.876;2024-02-26T18:58:46;2.15;;;1.70;;
23588;SDS011;11972;48.078;11.876;2024-02-26T19:02:47;3.03;;;2.20;;
23588;SDS011;11972;48.078;11.876;2024-02-26T19:06:48;3.77;;;3.00;;
23588;SDS011;11972;48.078;11.876;2024-02-26T19:10:49;7.65;;;4.10;;
23588;SDS011;11972;48.078;11.876;2024-02-26T19:14:49;4.05;;;1.10;;
23588;SDS011;11972;48.078;11.876;2024-02-26T19:18:50;1.25;;;0.95;;
23588;SDS011;11972;48.078;11.876;2024-02-26T19:22:51;3.08;;;2.10;;
23588;SDS011;11972;48.078;11.876;2024-02-26T19:26:54;2.42;;;1.83;;
23588;SDS011;11972;48.078;11.876;2024-02-26T19:30:55;2.10;;;1.90;;
23588;SDS011;11972;48.078;11.876;2024-02-26T19:34:56;4.63;;;1.77;;
23588;SDS011;11972;48.078;11.876;2024-02-26T19:38:57;2.22;;;1.90;;
23588;SDS011;11972;48.078;11.876;2024-02-26T19:42:57;2.60;;;1.70;;
23588;SDS011;11972;48.078;11.876;2024-02-26T19:46:58;4.15;;;2.50;;
23588;SDS011;11972;48.078;11.876;2024-02-26T19:50:58;4.45;;;2.05;;
23588;SDS011;11972;48.078;11.876;2024-02-26T19:54:59;2.20;;;1.67;;
23588;SDS011;11972;48.078;11.876;2024-02-26T19:58:59;1.70;;;1.00;;
23588;SDS011;11972;48.078;11.876;2024-02-26T20:02:59;2.30;;;0.90;;
23588;SDS011;11972;48.078;11.876;2024-02-26T20:07:00;2.63;;;1.00;;
23588;SDS011;11972;48.078;11.876;2024-02-26T20:11:00;2.38;;;1.73;;
23588;SDS011;11972;48.078;11.876;2024-02-26T20:15:01;3.47;;;2.55;;
23588;SDS011;11972;48.078;11.876;2024-02-26T20:19:01;2.67;;;1.58;;
23588;SDS011;11972;48.078;11.876;2024-02-26T20:23:02;2.10;;;1.60;;
23588;SDS011;11972;48.078;11.876;2024-02-26T20:27:02;1.85;;;1.40;;
23588;SDS011;11972;48.078;11.876;2024-02-26T20:31:03;2.33;;;1.17;;
23588;SDS011;11972;48.078;11.876;2024-02-26T20:35:04;2.80;;;2.35;;
23588;SDS011;11972;48.078;11.876;2024-02-26T20:39:07;3.72;;;1.98;;
23588;SDS011;11972;48.078;11.876;2024-02-26T20:43:07;3.03;;;1.20;;
23588;SDS011;11972;48.078;11.876;2024-02-26T20:47:08;2.05;;;1.80;;
23588;SDS011;11972;48.078;11.876;2024-02-26T20:51:08;2.97;;;1.60;;
23588;SDS011;11972;48.078;11.876;2024-02-26T20:55:09;6.57;;;1.75;;
23588;SDS011;11972;48.078;11.876;2024-02-26T20:59:10;1.75;;;0.93;;
23588;SDS011;11972;48.078;11.876;2024-02-26T21:03:12;1.40;;;1.20;;
23588;SDS011;11972;48.078;11.876;2024-02-26T21:07:12;2.53;;;1.42;;
23588;SDS011;11972;48.078;11.876;2024-02-26T21:11:16;1.35;;;1.25;;
23588;SDS011;11972;48.078;11.876;2024-02-26T21:15:16;1.73;;;1.58;;
23588;SDS011;11972;48.078;11.876;2024-02-26T21:19:16;4.68;;;2.05;;
23588;SDS011;11972;48.078;11.876;2024-02-26T21:23:17;2.10;;;1.80;;
23588;SDS011;11972;48.078;11.876;2024-02-26T21:27:17;2.17;;;1.40;;
23588;SDS011;11972;48.078;11.876;2024-02-26T21:31:18;1.88;;;1.27;;
23588;SDS011;11972;48.078;11.876;2024-02-26T21:35:18;1.95;;;1.10;;
23588;SDS011;11972;48.078;11.876;2024-02-26T21:39:18;1.55;;;1.20;;
23588;SDS011;11972;48.078;11.876;2024-02-26T21:43:20;2.17;;;1.10;;
23588;SDS011;11972;48.078;11.876;2024-02-26T21:47:20;1.45;;;1.30;;
23588;SDS011;11972;48.078;11.876;2024-02-26T21:51:21;3.78;;;3.47;;
23588;SDS011;11972;48.078;11.876;2024-02-26T21:55:22;3.08;;;2.88;;
23588;SDS011;11972;48.078;11.876;2024-02-26T21:59:23;1.67;;;1.13;;
23588;SDS011;11972;48.078;11.876;2024-02-26T22:03:23;3.05;;;2.42;;
23588;SDS011;11972;48.078;11.876;2024-02-26T22:07:24;2.28;;;2.08;;
23588;SDS011;11972;48.078;11.876;2024-02-26T22:11:24;2.67;;;1.60;;
23588;SDS011;11972;48.078;11.876;2024-02-26T22:15:24;1.92;;;1.50;;
23588;SDS011;11972;48.078;11.876;2024-02-26T22:19:25;2.55;;;2.00;;
23588;SDS011;11972;48.078;11.876;2024-02-26T22:23:26;6.68;;;1.80;;
23588;SDS011;11972;48.078;11.876;2024-02-26T22:27:26;3.67;;;2.33;;
23588;SDS011;11972;48.078;11.876;2024-02-26T22:31:26;2.97;;;2.25;;
23588;SDS011;11972;48.078;11.876;2024-02-26T22:35:28;3.53;;;2.33;;
23588;SDS011;11972;48.078;11.876;2024-02-26T22:39:29;3.35;;;2.10;;
23588;SDS011;11972;48.078;11.876;2024-02-26T22:43:30;3.85;;;2.35;;
23588;SDS011;11972;48.078;11.876;2024-02-26T22:47:30;3.58;;;2.15;;
23588;SDS011;11972;48.078;11.876;2024-02-26T22:51:31;3.45;;;2.30;;
23588;SDS011;11972;48.078;11.876;2024-02-26T22:55:31;9.68;;;5.47;;
23588;SDS011;11972;48.078;11.876;2024-02-26T22:59:32;4.97;;;3.40;;
23588;SDS011;11972;48.078;11.876;2024-02-26T23:03:32;4.03;;;3.00;;
23588;SDS011;11972;48.078;11.876;2024-02-26T23:07:32;28.08;;;13.70;;
23588;SDS011;11972;48.078;11.876;2024-02-26T23:11:33;28.98;;;13.38;;
23588;SDS011;11972;48.078;11.876;2024-02-26T23:15:34;37.22;;;16.85;;
23588;SDS011;11972;48.078;11.876;2024-02-26T23:19:34;12.40;;;6.88;;
23588;SDS011;11972;48.078;11.876;2024-02-26T23:23:34;4.43;;;3.50;;
23588;SDS011;11972;48.078;11.876;2024-02-26T23:27:35;4.15;;;3.25;;
23588;SDS011;11972;48.078;11.876;2024-02-26T23:31:35;4.55;;;3.80;;
23588;SDS011;11972;48.078;11.876;2024-02-26T23:35:36;4.45;;;3.35;;
23588;SDS011;11972;48.078;11.876;2024-02-26T23:39:36;6.22;;;3.85;;
23588;SDS011;11972;48.078;11.876;2024-02-26T23:43:36;7.72;;;6.03;;
23588;SDS011;11972;48.078;11.876;2024-02-26T23:47:38;5.78;;;4.68;;
23588;SDS011;11972;48.078;11.876;2024-02-26T23:51:38;6.45;;;4.88;;